sensor_id;sensor_type;location;lat;lon;timestamp;P1;durP1;ratioP1;P2;durP2;ratioP2
69008;SDS011;56065;52.472;13.380;2023-04-25T00:00:56;3.50;;;1.20;;
69008;SDS011;56065;52.472;13.380;2023-04-25T00:03:21;6.97;;;1.48;;
69008;SDS011;56065;52.472;13.380;2023-04-25T00:05:47;6.20;;;1.50;;
69008;SDS011;56065;52.472;13.380;2023-04-25T00:08:12;4.85;;;1.30;;
69008;SDS011;56065;52.472;13.380;2023-04-25T00:10:38;5.73;;;1.50;;
69008;SDS011;56065;52.472;13.380;2023-04-25T00:13:03;5.80;;;1.20;;
69008;SDS011;56065;52.472;13.380;2023-04-25T00:15:29;6.50;;;1.73;;
69008;SDS011;56065;52.472;13.380;2023-04-25T00:17:57;6.00;;;1.30;;
69008;SDS011;56065;52.472;13.380;2023-04-25T00:20:22;4.93;;;1.20;;
69008;SDS011;56065;52.472;13.380;2023-04-25T00:22:49;6.70;;;1.67;;
69008;SDS011;56065;52.472;13.380;2023-04-25T00:25:15;7.07;;;1.50;;
69008;SDS011;56065;52.472;13.380;2023-04-25T00:27:41;4.83;;;1.40;;
69008;SDS011;56065;52.472;13.380;2023-04-25T00:30:07;8.18;;;1.58;;
69008;SDS011;56065;52.472;13.380;2023-04-25T00:32:32;5.40;;;1.42;;
69008;SDS011;56065;52.472;13.380;2023-04-25T00:34:58;6.70;;;1.83;;
69008;SDS011;56065;52.472;13.380;2023-04-25T00:37:24;6.23;;;1.37;;
69008;SDS011;56065;52.472;13.380;2023-04-25T00:39:50;7.72;;;1.40;;
69008;SDS011;56065;52.472;13.380;2023-04-25T00:42:15;6.67;;;1.20;;
69008;SDS011;56065;52.472;13.380;2023-04-25T00:44:41;9.20;;;1.65;;
69008;SDS011;56065;52.472;13.380;2023-04-25T00:47:08;6.27;;;1.63;;
69008;SDS011;56065;52.472;13.380;2023-04-25T00:49:33;8.07;;;1.90;;
69008;SDS011;56065;52.472;13.380;2023-04-25T00:51:58;6.30;;;1.60;;
69008;SDS011;56065;52.472;13.380;2023-04-25T00:54:24;8.13;;;1.73;;
69008;SDS011;56065;52.472;13.380;2023-04-25T00:56:50;8.82;;;2.03;;
69008;SDS011;56065;52.472;13.380;2023-04-25T00:59:15;6.20;;;1.20;;
69008;SDS011;56065;52.472;13.380;2023-04-25T01:01:41;7.40;;;2.22;;
69008;SDS011;56065;52.472;13.380;2023-04-25T01:04:07;6.93;;;1.80;;
69008;SDS011;56065;52.472;13.380;2023-04-25T01:06:33;8.05;;;1.70;;
69008;SDS011;56065;52.472;13.380;2023-04-25T01:08:58;6.57;;;1.87;;
69008;SDS011;56065;52.472;13.380;2023-04-25T01:11:24;7.40;;;1.80;;
69008;SDS011;56065;52.472;13.380;2023-04-25T01:13:50;9.83;;;2.40;;
69008;SDS011;56065;52.472;13.380;2023-04-25T01:16:15;11.67;;;2.27;;
69008;SDS011;56065;52.472;13.380;2023-04-25T01:18:41;8.57;;;2.00;;
69008;SDS011;56065;52.472;13.380;2023-04-25T01:21:07;6.23;;;1.57;;
69008;SDS011;56065;52.472;13.380;2023-04-25T01:23:34;6.93;;;1.70;;
69008;SDS011;56065;52.472;13.380;2023-04-25T01:26:00;8.60;;;1.80;;
69008;SDS011;56065;52.472;13.380;2023-04-25T01:28:26;7.10;;;1.73;;
69008;SDS011;56065;52.472;13.380;2023-04-25T01:30:52;6.38;;;1.88;;
69008;SDS011;56065;52.472;13.380;2023-04-25T01:33:18;6.13;;;1.50;;
69008;SDS011;56065;52.472;13.380;2023-04-25T01:35:45;8.13;;;2.08;;
69008;SDS011;56065;52.472;13.380;2023-04-25T01:38:12;10.55;;;2.10;;
69008;SDS011;56065;52.472;13.380;2023-04-25T01:40:38;6.93;;;2.30;;
69008;SDS011;56065;52.472;13.380;2023-04-25T01:43:05;7.55;;;2.08;;
69008;SDS011;56065;52.472;13.380;2023-04-25T01:45:31;5.93;;;1.40;;
69008;SDS011;56065;52.472;13.380;2023-04-25T01:47:57;8.77;;;1.95;;
69008;SDS011;56065;52.472;13.380;2023-04-25T01:50:24;14.13;;;4.40;;
69008;SDS011;56065;52.472;13.380;2023-04-25T01:52:50;7.85;;;2.55;;
69008;SDS011;56065;52.472;13.380;2023-04-25T01:55:15;8.83;;;2.10;;
69008;SDS011;56065;52.472;13.380;2023-04-25T01:57:41;7.68;;;1.90;;
69008;SDS011;56065;52.472;13.380;2023-04-25T02:00:07;8.63;;;2.03;;
69008;SDS011;56065;52.472;13.380;2023-04-25T02:02:34;11.52;;;2.60;;
69008;SDS011;56065;52.472;13.380;2023-04-25T02:04:59;10.83;;;2.80;;
69008;SDS011;56065;52.472;13.380;2023-04-25T02:07:25;8.80;;;2.37;;
69008;SDS011;56065;52.472;13.380;2023-04-25T02:09:51;9.30;;;2.43;;
69008;SDS011;56065;52.472;13.380;2023-04-25T02:12:16;9.95;;;3.28;;
69008;SDS011;56065;52.472;13.380;2023-04-25T02:14:42;11.63;;;3.00;;
69008;SDS011;56065;52.472;13.380;2023-04-25T02:17:07;9.70;;;2.70;;
69008;SDS011;56065;52.472;13.380;2023-04-25T02:19:32;11.20;;;4.07;;
69008;SDS011;56065;52.472;13.380;2023-04-25T02:21:58;8.77;;;3.20;;
69008;SDS011;56065;52.472;13.380;2023-04-25T02:24:23;9.77;;;2.77;;
69008;SDS011;56065;52.472;13.380;2023-04-25T02:26:48;8.80;;;2.47;;
69008;SDS011;56065;52.472;13.380;2023-04-25T02:29:14;6.93;;;2.30;;
69008;SDS011;56065;52.472;13.380;2023-04-25T02:31:40;7.80;;;2.30;;
69008;SDS011;56065;52.472;13.380;2023-04-25T02:34:05;10.60;;;2.85;;
69008;SDS011;56065;52.472;13.380;2023-04-25T02:36:30;7.63;;;2.63;;
69008;SDS011;56065;52.472;13.380;2023-04-25T02:38:59;7.03;;;2.10;;
69008;SDS011;56065;52.472;13.380;2023-04-25T02:41:25;7.40;;;2.33;;
69008;SDS011;56065;52.472;13.380;2023-04-25T02:43:50;7.82;;;2.67;;
69008;SDS011;56065;52.472;13.380;2023-04-25T02:46:15;8.80;;;2.80;;
69008;SDS011;56065;52.472;13.380;2023-04-25T02:48:41;11.57;;;2.80;;
69008;SDS011;56065;52.472;13.380;2023-04-25T02:51:06;8.30;;;2.20;;
69008;SDS011;56065;52.472;13.380;2023-04-25T02:53:31;7.57;;;2.60;;
69008;SDS011;56065;52.472;13.380;2023-04-25T02:55:57;7.27;;;2.70;;
69008;SDS011;56065;52.472;13.380;2023-04-25T02:58:24;11.13;;;2.53;;
69008;SDS011;56065;52.472;13.380;2023-04-25T03:00:49;11.80;;;2.87;;
69008;SDS011;56065;52.472;13.380;2023-04-25T03:03:15;8.25;;;2.50;;
69008;SDS011;56065;52.472;13.380;2023-04-25T03:05:42;11.27;;;3.63;;
69008;SDS011;56065;52.472;13.380;2023-04-25T03:08:08;11.23;;;2.77;;
69008;SDS011;56065;52.472;13.380;2023-04-25T03:10:34;10.48;;;2.70;;
69008;SDS011;56065;52.472;13.380;2023-04-25T03:12:59;7.93;;;2.30;;
69008;SDS011;56065;52.472;13.380;2023-04-25T03:15:25;11.00;;;2.57;;
69008;SDS011;56065;52.472;13.380;2023-04-25T03:17:50;10.37;;;3.23;;
69008;SDS011;56065;52.472;13.380;2023-04-25T03:20:16;10.43;;;2.70;;
69008;SDS011;56065;52.472;13.380;2023-04-25T03:22:41;8.03;;;3.23;;
69008;SDS011;56065;52.472;13.380;2023-04-25T03:25:06;9.07;;;2.40;;
69008;SDS011;56065;52.472;13.380;2023-04-25T03:27:32;8.98;;;2.55;;
69008;SDS011;56065;52.472;13.380;2023-04-25T03:29:58;10.57;;;2.53;;
69008;SDS011;56065;52.472;13.380;2023-04-25T03:32:23;9.87;;;2.53;;
69008;SDS011;56065;52.472;13.380;2023-04-25T03:34:48;7.50;;;2.73;;
69008;SDS011;56065;52.472;13.380;2023-04-25T03:37:14;10.15;;;2.80;;
69008;SDS011;56065;52.472;13.380;2023-04-25T03:39:39;9.07;;;2.80;;
69008;SDS011;56065;52.472;13.380;2023-04-25T03:42:05;10.23;;;2.67;;
69008;SDS011;56065;52.472;13.380;2023-04-25T03:44:30;13.48;;;3.05;;
69008;SDS011;56065;52.472;13.380;2023-04-25T03:46:56;11.30;;;3.37;;
69008;SDS011;56065;52.472;13.380;2023-04-25T03:49:21;7.63;;;2.23;;
69008;SDS011;56065;52.472;13.380;2023-04-25T03:51:47;7.97;;;2.40;;
69008;SDS011;56065;52.472;13.380;2023-04-25T03:54:12;10.63;;;2.58;;
69008;SDS011;56065;52.472;13.380;2023-04-25T03:56:37;9.63;;;2.73;;
69008;SDS011;56065;52.472;13.380;2023-04-25T03:59:03;10.53;;;3.10;;
69008;SDS011;56065;52.472;13.380;2023-04-25T04:01:28;8.13;;;2.13;;
69008;SDS011;56065;52.472;13.380;2023-04-25T04:03:54;9.20;;;3.17;;
69008;SDS011;56065;52.472;13.380;2023-04-25T04:06:19;12.80;;;2.83;;
69008;SDS011;56065;52.472;13.380;2023-04-25T04:08:45;11.23;;;2.87;;
69008;SDS011;56065;52.472;13.380;2023-04-25T04:11:11;11.00;;;3.17;;
69008;SDS011;56065;52.472;13.380;2023-04-25T04:13:36;12.97;;;3.10;;
69008;SDS011;56065;52.472;13.380;2023-04-25T04:16:02;8.00;;;2.87;;
69008;SDS011;56065;52.472;13.380;2023-04-25T04:18:29;10.00;;;2.90;;
69008;SDS011;56065;52.472;13.380;2023-04-25T04:20:54;9.47;;;3.20;;
69008;SDS011;56065;52.472;13.380;2023-04-25T04:23:19;9.63;;;2.90;;
69008;SDS011;56065;52.472;13.380;2023-04-25T04:25:45;11.37;;;3.50;;
69008;SDS011;56065;52.472;13.380;2023-04-25T04:28:11;12.43;;;3.35;;
69008;SDS011;56065;52.472;13.380;2023-04-25T04:30:38;10.80;;;2.63;;
69008;SDS011;56065;52.472;13.380;2023-04-25T04:33:04;10.47;;;2.77;;
69008;SDS011;56065;52.472;13.380;2023-04-25T04:35:29;12.73;;;3.07;;
69008;SDS011;56065;52.472;13.380;2023-04-25T04:37:55;9.83;;;3.00;;
69008;SDS011;56065;52.472;13.380;2023-04-25T04:40:21;12.70;;;2.55;;
69008;SDS011;56065;52.472;13.380;2023-04-25T04:42:46;12.60;;;3.13;;
69008;SDS011;56065;52.472;13.380;2023-04-25T04:45:12;9.60;;;2.40;;
69008;SDS011;56065;52.472;13.380;2023-04-25T04:47:38;8.50;;;2.70;;
69008;SDS011;56065;52.472;13.380;2023-04-25T04:50:05;8.38;;;2.47;;
69008;SDS011;56065;52.472;13.380;2023-04-25T04:52:35;11.15;;;2.92;;
69008;SDS011;56065;52.472;13.380;2023-04-25T04:55:01;9.80;;;2.83;;
69008;SDS011;56065;52.472;13.380;2023-04-25T04:57:28;12.90;;;3.27;;
69008;SDS011;56065;52.472;13.380;2023-04-25T04:59:53;10.10;;;3.10;;
69008;SDS011;56065;52.472;13.380;2023-04-25T05:02:19;10.57;;;2.97;;
69008;SDS011;56065;52.472;13.380;2023-04-25T05:04:44;9.23;;;2.55;;
69008;SDS011;56065;52.472;13.380;2023-04-25T05:07:10;11.33;;;2.90;;
69008;SDS011;56065;52.472;13.380;2023-04-25T05:09:36;37.33;;;6.80;;
69008;SDS011;56065;52.472;13.380;2023-04-25T05:12:01;11.43;;;3.10;;
69008;SDS011;56065;52.472;13.380;2023-04-25T05:14:27;9.13;;;2.97;;
69008;SDS011;56065;52.472;13.380;2023-04-25T05:16:52;8.73;;;2.97;;
69008;SDS011;56065;52.472;13.380;2023-04-25T05:19:17;7.63;;;2.53;;
69008;SDS011;56065;52.472;13.380;2023-04-25T05:21:43;9.00;;;3.20;;
69008;SDS011;56065;52.472;13.380;2023-04-25T05:24:08;10.10;;;3.33;;
69008;SDS011;56065;52.472;13.380;2023-04-25T05:26:34;9.13;;;2.73;;
69008;SDS011;56065;52.472;13.380;2023-04-25T05:28:59;11.87;;;2.97;;
69008;SDS011;56065;52.472;13.380;2023-04-25T05:31:25;14.25;;;4.20;;
69008;SDS011;56065;52.472;13.380;2023-04-25T05:33:51;11.77;;;3.13;;
69008;SDS011;56065;52.472;13.380;2023-04-25T05:36:18;10.73;;;2.85;;
69008;SDS011;56065;52.472;13.380;2023-04-25T05:38:43;9.50;;;2.95;;
69008;SDS011;56065;52.472;13.380;2023-04-25T05:41:09;11.00;;;3.27;;
69008;SDS011;56065;52.472;13.380;2023-04-25T05:43:34;10.17;;;2.97;;
69008;SDS011;56065;52.472;13.380;2023-04-25T05:46:00;9.93;;;2.67;;
69008;SDS011;56065;52.472;13.380;2023-04-25T05:48:25;11.13;;;2.83;;
69008;SDS011;56065;52.472;13.380;2023-04-25T05:50:50;10.03;;;3.33;;
69008;SDS011;56065;52.472;13.380;2023-04-25T05:53:16;8.60;;;3.42;;
69008;SDS011;56065;52.472;13.380;2023-04-25T05:55:42;8.60;;;3.03;;
69008;SDS011;56065;52.472;13.380;2023-04-25T05:58:07;11.63;;;2.90;;
69008;SDS011;56065;52.472;13.380;2023-04-25T06:00:33;13.37;;;3.80;;
69008;SDS011;56065;52.472;13.380;2023-04-25T06:02:58;52.37;;;7.00;;
69008;SDS011;56065;52.472;13.380;2023-04-25T06:05:24;11.70;;;3.60;;
69008;SDS011;56065;52.472;13.380;2023-04-25T06:07:49;11.80;;;4.37;;
69008;SDS011;56065;52.472;13.380;2023-04-25T06:10:15;12.33;;;3.57;;
69008;SDS011;56065;52.472;13.380;2023-04-25T06:12:40;15.40;;;3.63;;
69008;SDS011;56065;52.472;13.380;2023-04-25T06:15:06;8.60;;;3.08;;
69008;SDS011;56065;52.472;13.380;2023-04-25T06:17:32;10.13;;;3.40;;
69008;SDS011;56065;52.472;13.380;2023-04-25T06:19:58;9.27;;;3.90;;
69008;SDS011;56065;52.472;13.380;2023-04-25T06:22:23;14.37;;;3.60;;
69008;SDS011;56065;52.472;13.380;2023-04-25T06:24:48;13.10;;;3.77;;
69008;SDS011;56065;52.472;13.380;2023-04-25T06:27:14;16.67;;;4.03;;
69008;SDS011;56065;52.472;13.380;2023-04-25T06:29:39;12.20;;;4.22;;
69008;SDS011;56065;52.472;13.380;2023-04-25T06:32:04;13.30;;;4.07;;
69008;SDS011;56065;52.472;13.380;2023-04-25T06:34:30;13.30;;;3.70;;
69008;SDS011;56065;52.472;13.380;2023-04-25T06:36:55;12.13;;;3.67;;
69008;SDS011;56065;52.472;13.380;2023-04-25T06:39:21;14.43;;;4.03;;
69008;SDS011;56065;52.472;13.380;2023-04-25T06:41:48;9.95;;;3.70;;
69008;SDS011;56065;52.472;13.380;2023-04-25T06:44:13;10.02;;;3.17;;
69008;SDS011;56065;52.472;13.380;2023-04-25T06:46:39;10.37;;;3.20;;
69008;SDS011;56065;52.472;13.380;2023-04-25T06:49:04;13.37;;;3.43;;
69008;SDS011;56065;52.472;13.380;2023-04-25T06:51:30;12.73;;;3.50;;
69008;SDS011;56065;52.472;13.380;2023-04-25T06:53:55;11.00;;;3.07;;
69008;SDS011;56065;52.472;13.380;2023-04-25T06:56:21;10.30;;;3.37;;
69008;SDS011;56065;52.472;13.380;2023-04-25T06:58:46;7.23;;;2.70;;
69008;SDS011;56065;52.472;13.380;2023-04-25T07:01:12;22.60;;;5.57;;
69008;SDS011;56065;52.472;13.380;2023-04-25T07:03:37;14.30;;;3.67;;
69008;SDS011;56065;52.472;13.380;2023-04-25T07:06:03;10.13;;;3.37;;
69008;SDS011;56065;52.472;13.380;2023-04-25T07:08:28;7.97;;;2.92;;
69008;SDS011;56065;52.472;13.380;2023-04-25T07:10:54;9.53;;;3.10;;
69008;SDS011;56065;52.472;13.380;2023-04-25T07:13:20;9.95;;;2.70;;
69008;SDS011;56065;52.472;13.380;2023-04-25T07:15:45;9.17;;;2.97;;
69008;SDS011;56065;52.472;13.380;2023-04-25T07:18:13;13.40;;;3.03;;
69008;SDS011;56065;52.472;13.380;2023-04-25T07:20:38;10.27;;;2.90;;
69008;SDS011;56065;52.472;13.380;2023-04-25T07:23:03;6.93;;;2.73;;
69008;SDS011;56065;52.472;13.380;2023-04-25T07:25:29;8.17;;;2.53;;
69008;SDS011;56065;52.472;13.380;2023-04-25T07:27:55;9.32;;;2.92;;
69008;SDS011;56065;52.472;13.380;2023-04-25T07:30:21;10.05;;;2.65;;
69008;SDS011;56065;52.472;13.380;2023-04-25T07:32:46;10.63;;;3.00;;
69008;SDS011;56065;52.472;13.380;2023-04-25T07:35:12;10.27;;;2.83;;
69008;SDS011;56065;52.472;13.380;2023-04-25T07:37:38;13.90;;;3.10;;
69008;SDS011;56065;52.472;13.380;2023-04-25T07:40:03;10.70;;;2.83;;
69008;SDS011;56065;52.472;13.380;2023-04-25T07:42:29;14.80;;;2.70;;
69008;SDS011;56065;52.472;13.380;2023-04-25T07:44:55;10.70;;;2.92;;
69008;SDS011;56065;52.472;13.380;2023-04-25T07:47:20;14.10;;;2.93;;
69008;SDS011;56065;52.472;13.380;2023-04-25T07:49:46;11.30;;;3.00;;
69008;SDS011;56065;52.472;13.380;2023-04-25T07:52:11;10.67;;;3.10;;
69008;SDS011;56065;52.472;13.380;2023-04-25T07:54:37;16.00;;;3.10;;
69008;SDS011;56065;52.472;13.380;2023-04-25T07:57:02;12.30;;;2.73;;
69008;SDS011;56065;52.472;13.380;2023-04-25T07:59:27;13.20;;;2.67;;
69008;SDS011;56065;52.472;13.380;2023-04-25T08:01:53;10.83;;;2.50;;
69008;SDS011;56065;52.472;13.380;2023-04-25T08:04:18;11.00;;;2.83;;
69008;SDS011;56065;52.472;13.380;2023-04-25T08:06:43;12.07;;;3.00;;
69008;SDS011;56065;52.472;13.380;2023-04-25T08:09:09;11.27;;;2.80;;
69008;SDS011;56065;52.472;13.380;2023-04-25T08:11:35;11.03;;;3.23;;
69008;SDS011;56065;52.472;13.380;2023-04-25T08:14:01;14.40;;;2.90;;
69008;SDS011;56065;52.472;13.380;2023-04-25T08:16:26;12.00;;;2.60;;
69008;SDS011;56065;52.472;13.380;2023-04-25T08:18:52;15.90;;;3.30;;
69008;SDS011;56065;52.472;13.380;2023-04-25T08:21:17;14.30;;;2.83;;
69008;SDS011;56065;52.472;13.380;2023-04-25T08:23:43;18.77;;;3.00;;
69008;SDS011;56065;52.472;13.380;2023-04-25T08:26:08;16.10;;;2.90;;
69008;SDS011;56065;52.472;13.380;2023-04-25T08:28:33;16.90;;;3.00;;
69008;SDS011;56065;52.472;13.380;2023-04-25T08:30:59;14.73;;;2.70;;
69008;SDS011;56065;52.472;13.380;2023-04-25T08:33:24;12.63;;;2.90;;
69008;SDS011;56065;52.472;13.380;2023-04-25T08:35:50;13.93;;;2.83;;
69008;SDS011;56065;52.472;13.380;2023-04-25T08:38:15;12.50;;;2.28;;
69008;SDS011;56065;52.472;13.380;2023-04-25T08:40:41;10.97;;;2.17;;
69008;SDS011;56065;52.472;13.380;2023-04-25T08:43:08;16.98;;;2.60;;
69008;SDS011;56065;52.472;13.380;2023-04-25T08:45:40;11.30;;;2.03;;
69008;SDS011;56065;52.472;13.380;2023-04-25T08:48:10;15.02;;;2.13;;
69008;SDS011;56065;52.472;13.380;2023-04-25T08:50:39;13.45;;;2.00;;
69008;SDS011;56065;52.472;13.380;2023-04-25T08:53:05;10.83;;;2.33;;
69008;SDS011;56065;52.472;13.380;2023-04-25T08:55:33;14.18;;;2.35;;
69008;SDS011;56065;52.472;13.380;2023-04-25T08:58:00;11.20;;;1.88;;
69008;SDS011;56065;52.472;13.380;2023-04-25T09:00:25;9.85;;;2.30;;
69008;SDS011;56065;52.472;13.380;2023-04-25T09:02:51;10.97;;;2.50;;
69008;SDS011;56065;52.472;13.380;2023-04-25T09:05:17;8.50;;;2.42;;
69008;SDS011;56065;52.472;13.380;2023-04-25T09:07:43;12.37;;;2.90;;
69008;SDS011;56065;52.472;13.380;2023-04-25T09:10:09;9.90;;;2.00;;
69008;SDS011;56065;52.472;13.380;2023-04-25T09:12:34;11.02;;;2.97;;
69008;SDS011;56065;52.472;13.380;2023-04-25T09:15:01;13.98;;;2.75;;
69008;SDS011;56065;52.472;13.380;2023-04-25T09:17:35;12.07;;;2.63;;
69008;SDS011;56065;52.472;13.380;2023-04-25T09:20:08;13.07;;;2.75;;
69008;SDS011;56065;52.472;13.380;2023-04-25T09:22:35;12.68;;;2.40;;
69008;SDS011;56065;52.472;13.380;2023-04-25T09:25:02;10.38;;;1.90;;
69008;SDS011;56065;52.472;13.380;2023-04-25T09:27:29;16.52;;;2.60;;
69008;SDS011;56065;52.472;13.380;2023-04-25T09:29:58;11.83;;;2.17;;
69008;SDS011;56065;52.472;13.380;2023-04-25T09:32:27;13.20;;;2.83;;
69008;SDS011;56065;52.472;13.380;2023-04-25T09:34:53;10.70;;;2.57;;
69008;SDS011;56065;52.472;13.380;2023-04-25T09:37:20;10.40;;;2.03;;
69008;SDS011;56065;52.472;13.380;2023-04-25T09:39:47;10.80;;;2.20;;
69008;SDS011;56065;52.472;13.380;2023-04-25T09:42:14;9.65;;;2.17;;
69008;SDS011;56065;52.472;13.380;2023-04-25T09:44:42;11.77;;;1.90;;
69008;SDS011;56065;52.472;13.380;2023-04-25T09:47:09;11.27;;;2.38;;
69008;SDS011;56065;52.472;13.380;2023-04-25T09:49:38;11.85;;;2.13;;
69008;SDS011;56065;52.472;13.380;2023-04-25T09:52:05;11.55;;;1.73;;
69008;SDS011;56065;52.472;13.380;2023-04-25T09:54:31;11.07;;;2.27;;
69008;SDS011;56065;52.472;13.380;2023-04-25T09:56:56;14.30;;;2.53;;
69008;SDS011;56065;52.472;13.380;2023-04-25T09:59:27;11.35;;;1.85;;
69008;SDS011;56065;52.472;13.380;2023-04-25T10:01:56;16.45;;;2.50;;
69008;SDS011;56065;52.472;13.380;2023-04-25T10:04:23;11.32;;;2.58;;
69008;SDS011;56065;52.472;13.380;2023-04-25T10:06:51;11.77;;;2.27;;
69008;SDS011;56065;52.472;13.380;2023-04-25T10:09:19;10.32;;;2.17;;
69008;SDS011;56065;52.472;13.380;2023-04-25T10:11:46;10.50;;;1.98;;
69008;SDS011;56065;52.472;13.380;2023-04-25T10:14:15;9.15;;;2.08;;
69008;SDS011;56065;52.472;13.380;2023-04-25T10:16:41;11.07;;;1.70;;
69008;SDS011;56065;52.472;13.380;2023-04-25T10:19:07;9.35;;;1.90;;
69008;SDS011;56065;52.472;13.380;2023-04-25T10:21:32;10.63;;;1.50;;
69008;SDS011;56065;52.472;13.380;2023-04-25T10:23:59;11.45;;;1.83;;
69008;SDS011;56065;52.472;13.380;2023-04-25T10:26:25;12.13;;;1.92;;
69008;SDS011;56065;52.472;13.380;2023-04-25T10:29:00;12.23;;;1.63;;
69008;SDS011;56065;52.472;13.380;2023-04-25T10:31:27;12.35;;;2.45;;
69008;SDS011;56065;52.472;13.380;2023-04-25T10:33:55;11.65;;;2.00;;
69008;SDS011;56065;52.472;13.380;2023-04-25T10:36:22;12.17;;;2.07;;
69008;SDS011;56065;52.472;13.380;2023-04-25T10:38:48;14.70;;;1.95;;
69008;SDS011;56065;52.472;13.380;2023-04-25T10:41:19;8.95;;;1.77;;
69008;SDS011;56065;52.472;13.380;2023-04-25T10:43:47;11.63;;;2.33;;
69008;SDS011;56065;52.472;13.380;2023-04-25T10:48:45;12.53;;;2.23;;
69008;SDS011;56065;52.472;13.380;2023-04-25T10:51:22;8.90;;;1.40;;
69008;SDS011;56065;52.472;13.380;2023-04-25T10:56:20;11.18;;;1.85;;
69008;SDS011;56065;52.472;13.380;2023-04-25T10:59:10;15.50;;;2.10;;
69008;SDS011;56065;52.472;13.380;2023-04-25T11:01:37;9.80;;;1.70;;
69008;SDS011;56065;52.472;13.380;2023-04-25T11:04:02;11.30;;;1.83;;
69008;SDS011;56065;52.472;13.380;2023-04-25T11:08:56;9.63;;;1.93;;
69008;SDS011;56065;52.472;13.380;2023-04-25T11:11:22;7.45;;;1.52;;
69008;SDS011;56065;52.472;13.380;2023-04-25T11:13:48;9.83;;;1.70;;
69008;SDS011;56065;52.472;13.380;2023-04-25T11:16:14;9.93;;;1.63;;
69008;SDS011;56065;52.472;13.380;2023-04-25T11:18:43;12.10;;;2.30;;
69008;SDS011;56065;52.472;13.380;2023-04-25T11:21:09;9.05;;;1.42;;
69008;SDS011;56065;52.472;13.380;2023-04-25T11:23:35;11.63;;;1.65;;
69008;SDS011;56065;52.472;13.380;2023-04-25T11:26:01;9.73;;;1.53;;
69008;SDS011;56065;52.472;13.380;2023-04-25T11:28:28;7.90;;;1.70;;
69008;SDS011;56065;52.472;13.380;2023-04-25T11:30:53;10.50;;;1.80;;
69008;SDS011;56065;52.472;13.380;2023-04-25T11:33:23;7.43;;;1.23;;
69008;SDS011;56065;52.472;13.380;2023-04-25T11:35:49;6.13;;;1.50;;
69008;SDS011;56065;52.472;13.380;2023-04-25T11:38:14;7.03;;;1.20;;
69008;SDS011;56065;52.472;13.380;2023-04-25T11:40:39;8.17;;;1.90;;
69008;SDS011;56065;52.472;13.380;2023-04-25T11:43:05;7.55;;;1.33;;
69008;SDS011;56065;52.472;13.380;2023-04-25T11:45:31;9.43;;;1.60;;
69008;SDS011;56065;52.472;13.380;2023-04-25T11:47:56;7.20;;;1.27;;
69008;SDS011;56065;52.472;13.380;2023-04-25T11:50:21;8.87;;;1.50;;
69008;SDS011;56065;52.472;13.380;2023-04-25T11:52:47;8.43;;;1.30;;
69008;SDS011;56065;52.472;13.380;2023-04-25T11:55:17;8.90;;;1.10;;
69008;SDS011;56065;52.472;13.380;2023-04-25T11:57:44;8.20;;;1.30;;
69008;SDS011;56065;52.472;13.380;2023-04-25T12:00:12;7.50;;;1.23;;
69008;SDS011;56065;52.472;13.380;2023-04-25T12:02:41;8.45;;;1.58;;
69008;SDS011;56065;52.472;13.380;2023-04-25T12:05:08;8.00;;;1.20;;
69008;SDS011;56065;52.472;13.380;2023-04-25T12:07:35;8.63;;;1.95;;
69008;SDS011;56065;52.472;13.380;2023-04-25T12:10:08;8.55;;;1.70;;
69008;SDS011;56065;52.472;13.380;2023-04-25T12:12:36;6.45;;;1.25;;
69008;SDS011;56065;52.472;13.380;2023-04-25T12:15:15;9.13;;;1.48;;
69008;SDS011;56065;52.472;13.380;2023-04-25T12:17:48;8.10;;;1.30;;
69008;SDS011;56065;52.472;13.380;2023-04-25T12:20:18;8.82;;;1.40;;
69008;SDS011;56065;52.472;13.380;2023-04-25T12:22:45;6.15;;;1.42;;
69008;SDS011;56065;52.472;13.380;2023-04-25T12:25:12;7.95;;;1.38;;
69008;SDS011;56065;52.472;13.380;2023-04-25T12:28:08;11.05;;;1.42;;
69008;SDS011;56065;52.472;13.380;2023-04-25T12:30:51;6.93;;;1.10;;
69008;SDS011;56065;52.472;13.380;2023-04-25T12:33:21;10.45;;;1.52;;
69008;SDS011;56065;52.472;13.380;2023-04-25T12:35:47;7.68;;;1.60;;
69008;SDS011;56065;52.472;13.380;2023-04-25T12:38:20;7.03;;;1.10;;
69008;SDS011;56065;52.472;13.380;2023-04-25T12:40:49;7.15;;;1.40;;
69008;SDS011;56065;52.472;13.380;2023-04-25T12:43:15;8.00;;;1.58;;
69008;SDS011;56065;52.472;13.380;2023-04-25T12:45:40;7.13;;;1.40;;
69008;SDS011;56065;52.472;13.380;2023-04-25T12:48:06;8.47;;;1.67;;
69008;SDS011;56065;52.472;13.380;2023-04-25T12:50:31;8.70;;;1.60;;
69008;SDS011;56065;52.472;13.380;2023-04-25T12:52:57;11.32;;;1.55;;
69008;SDS011;56065;52.472;13.380;2023-04-25T12:55:22;9.47;;;1.50;;
69008;SDS011;56065;52.472;13.380;2023-04-25T12:57:47;8.63;;;1.63;;
69008;SDS011;56065;52.472;13.380;2023-04-25T13:00:13;8.73;;;1.43;;
69008;SDS011;56065;52.472;13.380;2023-04-25T13:02:40;10.52;;;1.38;;
69008;SDS011;56065;52.472;13.380;2023-04-25T13:05:05;9.55;;;1.55;;
69008;SDS011;56065;52.472;13.380;2023-04-25T13:07:31;8.40;;;1.20;;
69008;SDS011;56065;52.472;13.380;2023-04-25T13:09:56;9.33;;;1.43;;
69008;SDS011;56065;52.472;13.380;2023-04-25T13:12:22;8.67;;;1.60;;
69008;SDS011;56065;52.472;13.380;2023-04-25T13:14:47;8.48;;;1.10;;
69008;SDS011;56065;52.472;13.380;2023-04-25T13:17:12;5.83;;;1.23;;
69008;SDS011;56065;52.472;13.380;2023-04-25T13:19:38;4.87;;;1.00;;
69008;SDS011;56065;52.472;13.380;2023-04-25T13:22:04;5.77;;;1.00;;
69008;SDS011;56065;52.472;13.380;2023-04-25T13:24:29;6.73;;;1.00;;
69008;SDS011;56065;52.472;13.380;2023-04-25T13:26:54;4.90;;;0.97;;
69008;SDS011;56065;52.472;13.380;2023-04-25T13:29:20;6.37;;;1.20;;
69008;SDS011;56065;52.472;13.380;2023-04-25T13:31:45;7.75;;;1.10;;
69008;SDS011;56065;52.472;13.380;2023-04-25T13:34:11;6.40;;;1.20;;
69008;SDS011;56065;52.472;13.380;2023-04-25T13:36:37;7.10;;;1.27;;
69008;SDS011;56065;52.472;13.380;2023-04-25T13:39:03;6.77;;;1.43;;
69008;SDS011;56065;52.472;13.380;2023-04-25T13:41:29;7.35;;;1.38;;
69008;SDS011;56065;52.472;13.380;2023-04-25T13:43:55;8.40;;;1.30;;
69008;SDS011;56065;52.472;13.380;2023-04-25T13:46:20;10.10;;;3.53;;
69008;SDS011;56065;52.472;13.380;2023-04-25T13:48:46;7.67;;;1.50;;
69008;SDS011;56065;52.472;13.380;2023-04-25T13:51:13;7.03;;;1.33;;
69008;SDS011;56065;52.472;13.380;2023-04-25T13:53:42;6.93;;;1.20;;
69008;SDS011;56065;52.472;13.380;2023-04-25T13:56:07;7.90;;;1.20;;
69008;SDS011;56065;52.472;13.380;2023-04-25T13:58:33;9.67;;;1.23;;
69008;SDS011;56065;52.472;13.380;2023-04-25T14:00:58;8.20;;;1.27;;
69008;SDS011;56065;52.472;13.380;2023-04-25T14:03:24;7.67;;;1.37;;
69008;SDS011;56065;52.472;13.380;2023-04-25T14:05:49;9.17;;;1.40;;
69008;SDS011;56065;52.472;13.380;2023-04-25T14:08:15;7.72;;;1.30;;
69008;SDS011;56065;52.472;13.380;2023-04-25T14:10:40;7.87;;;1.20;;
69008;SDS011;56065;52.472;13.380;2023-04-25T14:13:05;7.90;;;1.17;;
69008;SDS011;56065;52.472;13.380;2023-04-25T14:15:31;8.02;;;1.80;;
69008;SDS011;56065;52.472;13.380;2023-04-25T14:17:57;6.70;;;1.10;;
69008;SDS011;56065;52.472;13.380;2023-04-25T14:20:22;8.00;;;1.37;;
69008;SDS011;56065;52.472;13.380;2023-04-25T14:22:49;8.02;;;1.58;;
69008;SDS011;56065;52.472;13.380;2023-04-25T14:25:14;7.20;;;1.30;;
69008;SDS011;56065;52.472;13.380;2023-04-25T14:27:40;6.65;;;1.00;;
69008;SDS011;56065;52.472;13.380;2023-04-25T14:30:05;8.10;;;1.20;;